createdAt,value
2023-05-10T00:02:00.562Z,49.22
2023-05-10T00:04:29.285Z,49.27
2023-05-10T00:06:58.170Z,49.49
2023-05-10T00:09:26.962Z,49.43
2023-05-10T00:11:55.808Z,49.56
2023-05-10T00:14:24.586Z,49.57
2023-05-10T00:16:53.669Z,49.53
2023-05-10T00:19:22.345Z,49.63
2023-05-10T00:21:51.155Z,49.92
2023-05-10T00:24:19.843Z,50.04
2023-05-10T00:26:49.355Z,49.89
2023-05-10T00:29:18.084Z,50.10
2023-05-10T00:31:46.887Z,49.97
2023-05-10T00:34:15.830Z,50.18
2023-05-10T00:36:44.523Z,50.36
2023-05-10T00:39:14.070Z,50.25
2023-05-10T00:41:42.892Z,50.32
2023-05-10T00:44:11.909Z,50.06
2023-05-10T00:46:40.963Z,50.03
2023-05-10T00:49:09.736Z,50.09
2023-05-10T00:51:38.876Z,50.07
2023-05-10T00:54:08.421Z,50.24
2023-05-10T00:56:38.319Z,50.24
2023-05-10T00:59:07.200Z,50.09
2023-05-10T01:01:37.739Z,49.79
2023-05-10T01:04:06.478Z,49.10
2023-05-10T01:06:35.297Z,45.86
2023-05-10T01:09:04.052Z,43.92
2023-05-10T01:11:32.778Z,41.77
2023-05-10T01:14:01.601Z,40.09
2023-05-10T01:16:34.669Z,38.38
2023-05-10T01:19:03.483Z,37.11
2023-05-10T01:22:12.092Z,36.86
2023-05-10T01:24:55.863Z,35.41
2023-05-10T01:28:02.721Z,34.40
2023-05-10T01:30:59.257Z,32.84
2023-05-10T01:33:45.185Z,32.91
2023-05-10T01:36:13.771Z,32.99
2023-05-10T01:38:53.723Z,33.79
2023-05-10T01:41:38.144Z,33.49
2023-05-10T01:44:29.633Z,34.16
2023-05-10T01:47:33.051Z,33.92
2023-05-10T01:50:06.158Z,33.04
2023-05-10T01:52:39.705Z,33.50
2023-05-10T01:55:13.306Z,33.37
2023-05-10T01:57:44.209Z,33.98
2023-05-10T02:00:14.327Z,33.96
2023-05-10T02:02:47.534Z,34.34
2023-05-10T02:05:18.284Z,34.36
2023-05-10T02:07:47.400Z,35.00
2023-05-10T02:10:17.979Z,34.00
2023-05-10T02:12:50.836Z,33.86
2023-05-10T02:15:26.482Z,34.31
2023-05-10T02:17:57.347Z,34.32
2023-05-10T02:20:28.291Z,34.09
2023-05-10T02:22:59.299Z,34.47
2023-05-10T02:25:29.153Z,34.25
2023-05-10T02:28:00.332Z,34.57
2023-05-10T02:30:30.613Z,35.52
2023-05-10T02:33:00.574Z,34.87
2023-05-10T02:35:30.114Z,34.75
2023-05-10T02:38:00.703Z,34.71
2023-05-10T02:40:31.852Z,34.67
2023-05-10T02:43:03.537Z,35.00
2023-05-10T02:45:34.516Z,34.83
2023-05-10T02:48:05.213Z,34.07
2023-05-10T02:50:35.934Z,34.22
2023-05-10T02:53:10.526Z,33.45
2023-05-10T02:55:42.517Z,33.84
2023-05-10T02:58:11.768Z,33.31
2023-05-10T03:00:40.533Z,33.43
2023-05-10T03:03:10.197Z,33.61
2023-05-10T03:05:38.996Z,34.05
2023-05-10T03:08:08.745Z,33.85
2023-05-10T03:11:00.695Z,33.07
2023-05-10T03:13:57.186Z,33.43
2023-05-10T03:16:45.108Z,33.09
2023-05-10T03:19:28.322Z,33.49
2023-05-10T03:22:01.330Z,33.16
2023-05-10T03:24:36.279Z,33.25
2023-05-10T03:27:06.998Z,32.52
2023-05-10T03:29:37.260Z,32.36
2023-05-10T03:32:06.538Z,31.63
2023-05-10T03:34:35.354Z,31.48
2023-05-10T03:37:04.726Z,30.57
2023-05-10T03:39:34.310Z,30.74
2023-05-10T03:42:04.575Z,30.97
2023-05-10T03:44:35.108Z,31.56
2023-05-10T03:47:04.609Z,31.41
2023-05-10T03:49:34.067Z,31.17
2023-05-10T03:52:03.594Z,30.85
2023-05-10T03:54:34.009Z,30.75
2023-05-10T03:57:04.595Z,30.56
2023-05-10T03:59:34.215Z,30.55
2023-05-10T04:02:03.236Z,29.56
2023-05-10T04:04:32.243Z,28.96
2023-05-10T04:07:01.097Z,29.59
2023-05-10T04:09:33.393Z,29.64
2023-05-10T04:12:04.057Z,28.25
2023-05-10T04:14:32.805Z,28.57
2023-05-10T04:17:02.136Z,28.55
2023-05-10T04:19:32.494Z,28.34
2023-05-10T04:22:01.504Z,28.66
2023-05-10T04:24:30.262Z,28.40
2023-05-10T04:27:01.738Z,28.05
2023-05-10T04:29:30.521Z,26.84
2023-05-10T04:31:59.541Z,26.55
2023-05-10T04:34:28.362Z,27.15
2023-05-10T04:36:57.124Z,26.75
2023-05-10T04:39:26.479Z,26.50
2023-05-10T04:41:55.459Z,25.96
2023-05-10T04:44:24.409Z,26.70
2023-05-10T04:46:53.014Z,26.70
2023-05-10T04:49:22.389Z,26.27
2023-05-10T04:51:53.510Z,26.38
2023-05-10T04:54:22.526Z,26.12
2023-05-10T04:56:51.210Z,25.70
2023-05-10T04:59:20.026Z,26.79
2023-05-10T05:01:48.869Z,26.65
2023-05-10T05:04:18.050Z,26.36
2023-05-10T05:06:46.842Z,25.62
2023-05-10T06:18:21.211Z,23.67
2023-05-10T06:20:52.206Z,23.42
2023-05-10T06:23:21.204Z,23.33
2023-05-10T06:25:50.506Z,23.10
2023-05-10T06:28:19.929Z,22.70
2023-05-10T06:30:49.584Z,23.00
2023-05-10T06:33:18.438Z,23.14
2023-05-10T06:35:47.193Z,23.67
2023-05-10T06:38:16.061Z,23.32
2023-05-10T06:40:45.324Z,22.84
2023-05-10T06:43:14.253Z,22.80
2023-05-10T06:45:43.225Z,23.17
2023-05-10T06:48:14.426Z,22.91
2023-05-10T06:50:43.155Z,23.44
2023-05-10T06:53:12.250Z,23.98
2023-05-10T06:55:41.444Z,22.62
2023-05-10T06:58:12.644Z,22.39
2023-05-10T07:00:42.386Z,22.17
2023-05-10T07:03:12.556Z,21.93
2023-05-10T07:05:41.499Z,21.97
2023-05-10T07:08:10.589Z,22.07
2023-05-10T07:10:39.496Z,21.97
2023-05-10T07:13:08.461Z,21.84
2023-05-10T07:15:37.505Z,21.62
2023-05-10T07:18:08.195Z,21.25
2023-05-10T07:20:37.176Z,21.23
2023-05-10T07:23:06.193Z,21.33
2023-05-10T07:25:34.957Z,20.91
2023-05-10T07:28:03.907Z,20.65
2023-05-10T07:30:32.850Z,21.28
2023-05-10T07:33:01.868Z,20.89
2023-05-10T07:35:30.851Z,20.93
2023-05-10T07:37:59.526Z,21.86
2023-05-10T07:40:28.834Z,20.81
2023-05-10T07:42:57.744Z,21.02
2023-05-10T07:45:26.511Z,20.83
2023-05-10T07:47:55.499Z,20.48
2023-05-10T07:50:24.330Z,20.34
2023-05-10T07:52:53.420Z,20.09
2023-05-10T07:55:25.216Z,20.73
2023-05-10T07:57:54.182Z,20.39
2023-05-10T08:00:23.144Z,19.82
2023-05-10T08:02:51.942Z,20.23
2023-05-10T08:05:20.914Z,20.08
2023-05-10T08:07:49.418Z,19.95
2023-05-10T08:10:18.770Z,19.66
2023-05-10T08:12:47.560Z,20.52
2023-05-10T08:15:16.807Z,20.13
2023-05-10T08:17:45.781Z,20.53
2023-05-10T08:20:18.468Z,20.60
2023-05-10T08:22:49.925Z,20.52
2023-05-10T08:25:20.169Z,20.76
2023-05-10T08:27:49.196Z,20.50
2023-05-10T08:30:17.881Z,20.34
2023-05-10T08:32:46.769Z,20.96
2023-05-10T08:35:18.803Z,20.38
2023-05-10T08:37:47.719Z,20.17
2023-05-10T08:40:17.569Z,20.24
2023-05-10T08:42:55.741Z,20.15
2023-05-10T08:45:26.721Z,20.05
2023-05-10T08:47:56.180Z,20.38
2023-05-10T08:50:26.655Z,19.72
2023-05-10T08:52:59.522Z,19.30
2023-05-10T08:55:28.402Z,19.61
2023-05-10T08:57:57.301Z,19.32
2023-05-10T09:00:26.634Z,18.97
2023-05-10T09:02:56.352Z,19.02
2023-05-10T09:05:25.377Z,19.05
2023-05-10T09:07:54.687Z,19.21
2023-05-10T09:10:23.678Z,19.46
2023-05-10T09:12:53.283Z,18.98
2023-05-10T09:15:22.329Z,19.32
2023-05-10T09:17:51.907Z,19.25
2023-05-10T09:20:21.043Z,19.28
2023-05-10T09:22:50.048Z,18.96
2023-05-10T09:25:19.511Z,18.97
2023-05-10T09:27:49.820Z,18.88
2023-05-10T09:30:29.626Z,18.69
2023-05-10T09:33:00.030Z,18.89
2023-05-10T09:35:34.524Z,19.25
2023-05-10T09:38:05.582Z,18.92
2023-05-10T09:40:34.513Z,19.09
2023-05-10T09:43:07.862Z,18.92
2023-05-10T09:45:38.902Z,18.63
2023-05-10T09:48:08.587Z,18.97
2023-05-10T09:50:37.727Z,19.62
2023-05-10T09:53:06.677Z,19.19
2023-05-10T09:55:38.366Z,19.69
2023-05-10T09:58:11.618Z,19.33
2023-05-10T10:00:53.242Z,19.34
2023-05-10T10:03:23.313Z,18.87
2023-05-10T10:05:52.863Z,18.80
2023-05-10T10:08:22.130Z,19.49
2023-05-10T10:10:53.336Z,19.28
2023-05-10T10:13:22.109Z,19.00
2023-05-10T10:15:52.809Z,19.36
2023-05-10T10:18:25.429Z,19.23
2023-05-10T10:20:56.371Z,19.27
2023-05-10T10:23:25.249Z,20.24
2023-05-10T10:25:57.065Z,20.25
2023-05-10T10:28:50.593Z,20.59
2023-05-10T10:31:48.007Z,19.46
2023-05-10T10:34:31.207Z,19.87
2023-05-10T10:37:05.676Z,20.09
2023-05-10T10:39:34.882Z,19.95
2023-05-10T10:42:05.267Z,19.80
2023-05-10T10:44:35.504Z,19.82
2023-05-10T10:47:24.767Z,20.46
2023-05-10T10:50:04.102Z,20.57
2023-05-10T10:52:34.632Z,20.58
2023-05-10T10:55:16.242Z,20.20
2023-05-10T10:57:50.779Z,20.22
2023-05-10T11:00:30.275Z,19.98
2023-05-10T11:03:10.389Z,20.38
2023-05-10T11:05:42.585Z,20.67
2023-05-10T11:08:12.727Z,20.24
2023-05-10T11:10:50.867Z,20.47
2023-05-10T11:13:51.387Z,20.18
2023-05-10T11:16:21.798Z,20.31
2023-05-10T11:19:09.893Z,20.71
2023-05-10T11:21:53.459Z,20.67
2023-05-10T11:24:29.963Z,20.47
2023-05-10T11:26:58.900Z,19.99
2023-05-10T11:29:28.439Z,20.58
2023-05-10T11:32:00.847Z,20.57
2023-05-10T11:34:31.978Z,19.79
2023-05-10T11:37:02.587Z,20.22
2023-05-10T11:39:35.166Z,19.81
2023-05-10T11:42:04.161Z,19.90
2023-05-10T11:44:34.779Z,20.41
2023-05-10T11:47:05.052Z,20.17
2023-05-10T11:49:34.785Z,20.03
2023-05-10T11:52:10.520Z,20.16
2023-05-10T11:54:40.190Z,20.07
2023-05-10T11:57:10.481Z,19.89
2023-05-10T11:59:41.742Z,19.66
2023-05-10T12:02:13.094Z,19.70
2023-05-10T12:04:42.858Z,20.08
2023-05-10T12:07:12.138Z,20.58
2023-05-10T12:09:46.819Z,20.23
2023-05-10T12:12:18.830Z,20.53
2023-05-10T12:14:52.761Z,20.46
2023-05-10T12:17:21.641Z,19.93
2023-05-10T12:19:50.602Z,20.42
2023-05-10T12:22:23.783Z,20.45
2023-05-10T12:24:53.119Z,19.96
2023-05-10T12:27:22.427Z,20.77
2023-05-10T12:29:52.902Z,20.90
2023-05-10T12:32:22.208Z,21.01
2023-05-10T12:34:57.094Z,20.33
2023-05-10T12:37:30.388Z,20.26
2023-05-10T12:39:59.610Z,20.32
2023-05-10T12:42:28.981Z,20.58
2023-05-10T12:44:59.340Z,20.71
2023-05-10T12:47:28.399Z,20.99
2023-05-10T12:49:58.478Z,21.28
2023-05-10T12:52:30.683Z,20.90
2023-05-10T12:55:01.925Z,20.96
2023-05-10T12:57:32.582Z,21.63
2023-05-10T13:00:01.867Z,21.61
2023-05-10T13:02:31.229Z,21.69
2023-05-10T13:05:02.001Z,21.92
2023-05-10T13:07:31.588Z,21.89
2023-05-10T13:10:03.379Z,22.75
2023-05-10T13:12:32.198Z,22.66
2023-05-10T13:15:01.420Z,22.78
2023-05-10T13:17:32.122Z,23.11
2023-05-10T13:20:02.695Z,22.79
2023-05-10T13:22:40.189Z,23.56
2023-05-10T13:25:10.579Z,23.58
2023-05-10T13:27:43.980Z,23.57
2023-05-10T13:30:13.533Z,23.48
2023-05-10T13:32:43.758Z,24.19
2023-05-10T13:35:13.740Z,23.55
2023-05-10T13:37:42.587Z,24.31
2023-05-10T13:40:12.200Z,24.05
2023-05-10T13:42:41.504Z,25.17
2023-05-10T13:45:11.003Z,25.48
2023-05-10T13:47:40.462Z,25.35
2023-05-10T13:50:09.847Z,24.85
2023-05-10T13:52:39.370Z,24.93
2023-05-10T13:55:10.787Z,25.16
2023-05-10T13:57:40.164Z,25.46
2023-05-10T14:00:12.706Z,25.22
2023-05-10T14:02:46.670Z,25.73
2023-05-10T14:05:21.010Z,26.38
2023-05-10T14:07:54.368Z,26.18
2023-05-10T14:10:23.371Z,26.75
2023-05-10T14:12:52.724Z,26.66
2023-05-10T14:15:21.965Z,26.73
2023-05-10T14:17:51.178Z,26.99
2023-05-10T14:20:20.146Z,25.66
2023-05-10T14:22:49.229Z,26.69
2023-05-10T14:25:18.360Z,27.48
2023-05-10T14:27:47.648Z,27.17
2023-05-10T14:30:17.478Z,28.36
2023-05-10T14:32:46.327Z,27.88
2023-05-10T14:35:18.415Z,28.08
2023-05-10T14:37:49.129Z,27.83
2023-05-10T14:40:19.128Z,27.68
2023-05-10T14:42:48.046Z,28.13
2023-05-10T14:45:17.434Z,29.01
2023-05-10T14:47:46.926Z,28.14
2023-05-10T14:50:31.812Z,27.87
2023-05-10T14:53:04.744Z,29.65
2023-05-10T14:55:34.674Z,29.39
2023-05-10T14:58:05.643Z,28.54
2023-05-10T15:00:34.573Z,29.45
2023-05-10T15:03:04.282Z,30.46
2023-05-10T15:05:33.797Z,29.24
2023-05-10T15:08:03.313Z,29.31
2023-05-10T15:10:34.303Z,28.86
2023-05-10T15:13:03.777Z,29.53
2023-05-10T15:15:33.436Z,27.95
2023-05-10T15:18:02.720Z,28.42
2023-05-10T15:20:32.197Z,27.58
2023-05-10T15:23:01.451Z,27.86
2023-05-10T15:25:30.669Z,29.02
2023-05-10T15:28:00.380Z,29.21
2023-05-10T15:30:29.439Z,29.30
2023-05-10T15:32:58.879Z,30.74
2023-05-10T15:35:29.080Z,29.45
2023-05-10T15:37:58.623Z,29.45
2023-05-10T15:40:28.367Z,29.62
2023-05-10T15:42:58.249Z,29.78
2023-05-10T15:45:27.286Z,27.68
2023-05-10T15:47:56.772Z,28.86
2023-05-10T15:50:26.433Z,29.49
2023-05-10T15:52:55.575Z,29.89
2023-05-10T15:55:25.176Z,28.91
2023-05-10T15:57:54.677Z,29.99
2023-05-10T16:00:24.334Z,29.62
2023-05-10T16:02:55.190Z,29.88
2023-05-10T16:05:25.212Z,30.83
2023-05-10T16:07:54.427Z,30.98
2023-05-10T16:10:23.959Z,29.45
2023-05-10T16:12:54.637Z,29.41
2023-05-10T16:15:24.450Z,31.00
2023-05-10T16:17:53.672Z,30.71
2023-05-10T16:20:22.833Z,32.29
2023-05-10T16:22:51.892Z,32.17
2023-05-10T16:25:20.928Z,32.33
2023-05-10T16:27:50.369Z,32.60
2023-05-10T16:30:21.245Z,32.69
2023-05-10T16:32:52.017Z,30.98
2023-05-10T16:35:21.644Z,31.35
2023-05-10T16:37:51.521Z,31.02
2023-05-10T16:40:20.877Z,31.04
2023-05-10T16:42:50.069Z,30.25
2023-05-10T16:45:19.300Z,30.15
2023-05-10T16:47:48.406Z,30.39
2023-05-10T16:50:18.583Z,30.23
2023-05-10T16:52:51.188Z,31.03
2023-05-10T16:55:20.950Z,30.79
2023-05-10T16:57:52.770Z,31.99
2023-05-10T17:00:21.836Z,31.59
2023-05-10T17:02:51.179Z,31.44
2023-05-10T17:05:20.484Z,31.83
2023-05-10T17:07:50.477Z,31.34
2023-05-10T17:10:19.776Z,32.40
2023-05-10T17:12:49.269Z,32.51
2023-05-10T17:15:20.012Z,32.06
2023-05-10T17:17:49.429Z,32.31
2023-05-10T17:20:18.633Z,32.75
2023-05-10T17:22:48.248Z,32.79
2023-05-10T17:25:17.558Z,32.51
2023-05-10T17:27:47.087Z,32.36
2023-05-10T17:30:16.485Z,32.87
2023-05-10T17:32:45.641Z,32.49
2023-05-10T17:35:15.015Z,33.10
2023-05-10T17:37:45.606Z,33.39
2023-05-10T17:40:14.847Z,32.86
2023-05-10T17:42:43.931Z,32.95
2023-05-10T17:45:13.703Z,33.20
2023-05-10T17:47:42.506Z,33.87
2023-05-10T17:50:11.843Z,33.15
2023-05-10T17:52:40.956Z,34.22
2023-05-10T17:55:10.249Z,33.84
2023-05-10T17:57:40.161Z,33.90
2023-05-10T18:00:09.977Z,33.94
2023-05-10T18:02:39.556Z,33.95
2023-05-10T18:05:09.450Z,33.93
2023-05-10T18:07:38.243Z,33.99
2023-05-10T18:10:07.985Z,33.67
2023-05-10T18:12:36.768Z,34.15
2023-05-10T18:15:06.246Z,34.25
2023-05-10T18:17:35.864Z,34.79
2023-05-10T18:20:04.762Z,35.52
2023-05-10T18:22:33.559Z,35.44
2023-05-10T18:25:02.948Z,36.04
2023-05-10T18:27:31.843Z,37.49
2023-05-10T18:30:00.701Z,37.81
2023-05-10T18:32:29.800Z,37.72
2023-05-10T18:34:59.239Z,37.13
2023-05-10T18:37:28.117Z,37.55
2023-05-10T18:39:57.065Z,39.15
2023-05-10T18:42:27.807Z,38.79
2023-05-10T18:44:56.608Z,39.92
2023-05-10T18:47:27.358Z,40.46
2023-05-10T18:49:56.447Z,40.19
2023-05-10T18:52:25.287Z,41.06
2023-05-10T18:54:54.301Z,41.70
2023-05-10T18:57:23.282Z,41.89
2023-05-10T18:59:51.973Z,41.45
2023-05-10T19:02:21.183Z,42.71
2023-05-10T19:04:50.189Z,43.97
2023-05-10T19:07:19.086Z,44.10
2023-05-10T19:09:50.473Z,44.35
2023-05-10T19:12:21.474Z,44.59
2023-05-10T19:14:50.485Z,46.39
2023-05-10T19:17:20.889Z,46.51
2023-05-10T19:19:51.091Z,47.71
2023-05-10T19:22:31.992Z,48.36
2023-05-10T19:25:11.069Z,48.77
2023-05-10T19:27:40.485Z,49.33
2023-05-10T19:30:09.982Z,50.18
2023-05-10T19:32:39.234Z,51.43
2023-05-10T19:35:08.608Z,52.09
2023-05-10T19:37:37.421Z,55.31
2023-05-10T19:40:06.740Z,54.39
2023-05-10T19:42:35.467Z,56.86
2023-05-10T19:45:04.672Z,57.47
2023-05-10T19:47:33.583Z,58.70
2023-05-10T19:50:02.591Z,61.00
2023-05-10T19:52:31.988Z,62.07
2023-05-10T19:55:00.672Z,61.95
2023-05-10T19:57:30.146Z,62.91
2023-05-10T19:59:59.167Z,63.46
2023-05-10T20:02:27.916Z,64.56
2023-05-10T20:04:57.374Z,65.53
2023-05-10T20:07:26.397Z,65.91
2023-05-10T20:09:55.220Z,66.59
2023-05-10T20:12:24.363Z,67.26
2023-05-10T20:14:53.265Z,67.82
2023-05-10T20:17:22.067Z,68.49
2023-05-10T20:19:51.086Z,68.00
2023-05-10T20:22:20.401Z,69.13
2023-05-10T20:24:49.352Z,69.25
2023-05-10T20:27:18.333Z,69.52
2023-05-10T20:29:47.385Z,70.00
2023-05-10T20:32:16.165Z,70.33
2023-05-10T20:34:45.063Z,71.00
2023-05-10T20:37:14.383Z,71.00
2023-05-10T20:39:43.044Z,71.20
2023-05-10T20:42:12.301Z,69.86
2023-05-10T20:44:41.045Z,70.34
2023-05-10T20:47:09.758Z,71.41
2023-05-10T20:49:38.693Z,71.52
2023-05-10T20:52:08.049Z,72.15
2023-05-10T20:54:36.961Z,73.17
2023-05-10T20:57:06.578Z,73.94
2023-05-10T20:59:35.488Z,74.07
2023-05-10T21:02:04.288Z,75.41
2023-05-10T21:04:33.142Z,75.52
2023-05-10T21:07:01.724Z,75.66
2023-05-10T21:09:30.690Z,76.01
2023-05-10T21:12:00.060Z,76.12
2023-05-10T21:14:29.104Z,76.51
2023-05-10T21:16:58.171Z,77.45
2023-05-10T21:19:27.071Z,76.89
2023-05-10T21:21:56.929Z,77.30
2023-05-10T21:24:25.704Z,77.51
2023-05-10T21:26:55.089Z,77.42
2023-05-10T21:29:23.952Z,77.73
2023-05-10T21:31:52.865Z,78.54
2023-05-10T21:34:25.718Z,78.73
2023-05-10T21:36:56.046Z,78.59
2023-05-10T21:39:25.035Z,78.70
2023-05-10T21:41:53.922Z,78.62
2023-05-10T21:44:23.141Z,79.03
2023-05-10T21:46:52.108Z,79.60
2023-05-10T21:49:21.236Z,79.65
2023-05-10T21:51:50.053Z,79.39
2023-05-10T21:54:18.928Z,80.20
2023-05-10T21:56:48.082Z,80.45
2023-05-10T21:59:17.055Z,80.53
2023-05-10T22:01:46.281Z,81.15
2023-05-10T22:04:15.700Z,81.53
2023-05-10T22:06:44.879Z,81.31
2023-05-10T22:09:13.518Z,81.86
2023-05-10T22:11:42.512Z,82.48
2023-05-10T22:14:11.381Z,82.13
2023-05-10T22:16:40.236Z,82.77
2023-05-10T22:19:08.929Z,83.00
2023-05-10T22:21:37.887Z,83.13
2023-05-10T22:24:06.742Z,83.64
2023-05-10T22:26:35.677Z,83.88
2023-05-10T22:29:05.102Z,84.19
2023-05-10T22:31:33.976Z,84.35
2023-05-10T22:34:03.201Z,85.03
2023-05-10T22:36:33.093Z,85.51
2023-05-10T22:39:02.184Z,85.29
2023-05-10T22:41:30.998Z,85.14
2023-05-10T22:44:00.161Z,85.45
2023-05-10T22:46:30.284Z,85.54
2023-05-10T22:49:00.757Z,85.65
2023-05-10T22:51:29.656Z,86.10
2023-05-10T22:53:58.226Z,86.25
2023-05-10T22:56:27.085Z,86.00
2023-05-10T22:58:56.570Z,86.21
2023-05-10T23:01:25.599Z,86.49
2023-05-10T23:03:54.691Z,86.69
2023-05-10T23:06:23.490Z,86.88
2023-05-10T23:08:52.905Z,86.93
2023-05-10T23:11:22.747Z,87.67
2023-05-10T23:13:52.690Z,87.50
2023-05-10T23:16:21.588Z,87.50
2023-05-10T23:18:50.530Z,87.91
2023-05-10T23:21:19.475Z,87.88
2023-05-10T23:23:48.719Z,88.16
2023-05-10T23:26:17.714Z,87.94
2023-05-10T23:28:46.422Z,88.32
2023-05-10T23:31:15.627Z,88.67
2023-05-10T23:33:44.359Z,88.75
2023-05-10T23:36:13.277Z,89.19
2023-05-10T23:38:42.160Z,89.81
2023-05-10T23:41:10.952Z,89.57
2023-05-10T23:43:39.894Z,89.90
2023-05-10T23:46:08.727Z,89.97
2023-05-10T23:48:37.866Z,90.01
2023-05-10T23:51:06.570Z,90.17
2023-05-10T23:53:35.444Z,90.23
2023-05-10T23:56:06.432Z,90.25
2023-05-10T23:58:35.299Z,90.29
